createdAt,value
2023-01-29T00:02:05.723Z,36.65
2023-01-29T00:04:32.745Z,36.03
2023-01-29T00:06:59.517Z,37.87
2023-01-29T00:09:26.408Z,40.85
2023-01-29T00:11:53.031Z,39.80
2023-01-29T00:14:20.050Z,32.72
2023-01-29T00:16:46.709Z,40.42
2023-01-29T00:19:13.313Z,39.97
2023-01-29T00:21:39.960Z,40.38
2023-01-29T00:24:06.723Z,37.75
2023-01-29T00:26:33.322Z,36.75
2023-01-29T00:29:02.981Z,38.80
2023-01-29T00:31:29.699Z,39.53
2023-01-29T00:33:57.016Z,36.22
2023-01-29T00:36:23.871Z,39.67
2023-01-29T00:38:58.748Z,41.67
2023-01-29T00:41:48.917Z,40.22
2023-01-29T00:44:34.531Z,36.87
2023-01-29T00:47:01.559Z,34.28
2023-01-29T00:49:28.234Z,38.72
2023-01-29T00:52:13.149Z,34.92
2023-01-29T00:54:39.945Z,38.00
2023-01-29T00:57:06.605Z,35.10
2023-01-29T00:59:33.135Z,35.28
2023-01-29T01:02:18.315Z,31.85
2023-01-29T01:04:44.980Z,28.38
2023-01-29T01:09:56.464Z,35.57
2023-01-29T01:12:23.088Z,32.40
2023-01-29T01:14:50.098Z,33.93
2023-01-29T01:17:17.071Z,45.47
2023-01-29T01:19:43.667Z,36.88
2023-01-29T01:22:10.263Z,43.63
2023-01-29T01:24:37.396Z,39.25
2023-01-29T01:27:04.004Z,40.57
2023-01-29T01:29:30.840Z,41.35
2023-01-29T01:31:57.679Z,43.13
2023-01-29T01:34:24.420Z,37.72
2023-01-29T01:36:50.954Z,41.95
2023-01-29T01:39:17.535Z,32.17
2023-01-29T01:41:44.159Z,36.90
2023-01-29T01:44:48.192Z,36.70
2023-01-29T01:47:16.142Z,35.67
2023-01-29T01:49:44.235Z,34.83
2023-01-29T01:52:12.892Z,29.07
2023-01-29T01:54:39.650Z,40.38
2023-01-29T01:57:16.025Z,33.40
2023-01-29T01:59:54.597Z,34.88
2023-01-29T02:02:40.318Z,38.95
2023-01-29T02:08:12.174Z,35.00
2023-01-29T02:10:45.197Z,34.28
2023-01-29T02:13:12.731Z,32.42
2023-01-29T02:15:42.105Z,34.80
2023-01-29T02:18:09.434Z,40.17
2023-01-29T02:20:38.483Z,35.20
2023-01-29T02:23:28.227Z,37.05
2023-01-29T02:26:20.846Z,32.08
2023-01-29T02:28:53.757Z,38.65
2023-01-29T02:31:36.911Z,36.37
2023-01-29T02:34:55.883Z,35.88
2023-01-29T02:37:34.981Z,42.38
2023-01-29T02:40:31.524Z,38.13
2023-01-29T02:43:37.327Z,36.53
2023-01-29T02:46:31.212Z,40.90
2023-01-29T02:49:22.934Z,40.38
2023-01-29T02:52:09.811Z,36.83
2023-01-29T02:54:45.932Z,35.50
2023-01-29T02:57:23.310Z,34.83
2023-01-29T02:59:56.420Z,47.90
2023-01-29T03:02:35.096Z,43.10
2023-01-29T03:05:08.634Z,39.78
2023-01-29T03:07:46.673Z,39.55
2023-01-29T03:10:20.162Z,42.38
2023-01-29T03:12:55.676Z,41.23
2023-01-29T03:15:31.176Z,39.15
2023-01-29T03:18:05.540Z,38.50
2023-01-29T03:20:40.301Z,38.70
2023-01-29T03:23:14.841Z,41.80
2023-01-29T03:26:01.713Z,38.27
2023-01-29T03:28:48.990Z,42.00
2023-01-29T03:31:37.433Z,39.25
2023-01-29T03:34:16.617Z,37.08
2023-01-29T03:36:58.624Z,38.38
2023-01-29T03:39:30.234Z,42.47
2023-01-29T03:42:18.208Z,39.83
2023-01-29T03:44:50.463Z,40.28
2023-01-29T03:47:34.509Z,36.20
2023-01-29T03:50:29.575Z,49.55
2023-01-29T03:53:25.865Z,42.43
2023-01-29T03:55:59.670Z,33.38
2023-01-29T03:58:40.465Z,38.85
2023-01-29T04:01:07.033Z,42.97
2023-01-29T04:03:54.854Z,46.88
2023-01-29T04:06:27.469Z,40.50
2023-01-29T04:09:03.850Z,41.58
2023-01-29T04:11:34.691Z,43.53
2023-01-29T04:14:01.369Z,42.95
2023-01-29T04:16:35.222Z,44.33
2023-01-29T04:19:02.461Z,40.57
2023-01-29T04:21:31.932Z,46.88
2023-01-29T04:23:58.990Z,42.65
2023-01-29T04:26:28.424Z,44.35
2023-01-29T04:29:17.407Z,47.05
2023-01-29T04:31:56.383Z,43.20
2023-01-29T04:34:32.380Z,48.95
2023-01-29T04:37:05.563Z,47.20
2023-01-29T04:39:41.096Z,44.28
2023-01-29T04:42:37.134Z,48.00
2023-01-29T04:45:18.198Z,46.70
2023-01-29T04:47:58.748Z,42.67
2023-01-29T04:50:40.346Z,40.28
2023-01-29T04:53:36.165Z,38.28
2023-01-29T04:56:17.305Z,41.55
2023-01-29T04:58:54.953Z,45.83
2023-01-29T05:01:25.875Z,46.03
2023-01-29T05:03:55.999Z,44.03
2023-01-29T05:06:25.063Z,44.72
2023-01-29T05:08:52.486Z,40.58
2023-01-29T05:11:20.555Z,41.93
2023-01-29T05:13:49.000Z,44.35
2023-01-29T05:16:30.133Z,46.90
2023-01-29T05:18:57.021Z,52.88
2023-01-29T05:21:24.726Z,44.58
2023-01-29T05:24:07.813Z,41.53
2023-01-29T05:26:53.442Z,46.13
2023-01-29T05:29:22.319Z,36.78
2023-01-29T05:31:49.002Z,38.75
2023-01-29T05:34:15.702Z,37.45
2023-01-29T05:36:42.335Z,42.43
2023-01-29T05:39:08.974Z,38.42
2023-01-29T05:41:35.660Z,38.13
2023-01-29T05:44:02.166Z,41.28
2023-01-29T05:46:29.300Z,40.53
2023-01-29T05:48:56.040Z,45.37
2023-01-29T05:51:22.954Z,40.30
2023-01-29T05:53:49.532Z,40.47
2023-01-29T05:56:16.143Z,35.80
2023-01-29T05:58:42.749Z,37.40
2023-01-29T06:01:18.404Z,42.90
2023-01-29T06:03:46.284Z,33.03
2023-01-29T06:06:13.207Z,36.47
2023-01-29T06:08:40.567Z,39.25
2023-01-29T06:11:09.461Z,34.88
2023-01-29T06:13:36.129Z,31.67
2023-01-29T06:16:07.324Z,42.45
2023-01-29T06:18:34.286Z,42.90
2023-01-29T06:21:02.781Z,44.83
2023-01-29T06:23:29.968Z,43.47
2023-01-29T06:26:04.808Z,38.27
2023-01-29T06:28:31.605Z,39.15
2023-01-29T06:31:11.497Z,42.78
2023-01-29T06:33:43.058Z,45.28
2023-01-29T06:36:09.850Z,41.63
2023-01-29T06:38:36.546Z,39.70
2023-01-29T06:41:11.244Z,38.78
2023-01-29T06:43:39.244Z,44.33
2023-01-29T06:46:08.082Z,40.50
2023-01-29T06:48:35.496Z,47.22
2023-01-29T06:51:04.214Z,37.27
2023-01-29T06:53:31.679Z,42.15
2023-01-29T06:55:58.606Z,41.35
2023-01-29T06:58:25.661Z,47.85
2023-01-29T07:00:53.086Z,43.13
2023-01-29T07:03:21.122Z,42.17
2023-01-29T07:05:52.573Z,38.20
2023-01-29T07:08:22.713Z,48.75
2023-01-29T07:10:50.521Z,41.72
2023-01-29T07:13:17.492Z,41.90
2023-01-29T07:15:44.604Z,41.33
2023-01-29T07:18:14.641Z,39.20
2023-01-29T07:20:42.574Z,39.75
2023-01-29T07:23:12.347Z,46.20
2023-01-29T07:25:40.712Z,36.53
2023-01-29T07:28:07.954Z,44.67
2023-01-29T07:30:35.739Z,48.53
2023-01-29T07:33:08.388Z,39.67
2023-01-29T07:35:40.071Z,42.13
2023-01-29T07:38:08.320Z,42.72
2023-01-29T07:40:35.368Z,32.77
2023-01-29T07:43:04.653Z,43.08
2023-01-29T07:45:33.509Z,35.25
2023-01-29T07:48:00.246Z,35.35
2023-01-29T07:50:27.768Z,36.08
2023-01-29T07:52:55.136Z,33.40
2023-01-29T07:55:22.403Z,39.10
2023-01-29T07:57:55.467Z,51.65
2023-01-29T08:00:22.535Z,45.25
2023-01-29T08:02:49.183Z,42.83
2023-01-29T08:05:15.996Z,44.27
2023-01-29T08:07:42.609Z,55.92
2023-01-29T08:10:09.929Z,44.97
2023-01-29T08:12:36.603Z,42.67
2023-01-29T08:15:03.669Z,38.35
2023-01-29T08:17:30.487Z,41.20
2023-01-29T08:19:57.535Z,42.58
2023-01-29T08:22:24.128Z,39.17
2023-01-29T08:24:54.163Z,35.13
2023-01-29T08:27:26.795Z,44.60
2023-01-29T08:29:53.407Z,37.53
2023-01-29T08:32:19.986Z,32.70
2023-01-29T08:34:46.623Z,33.55
2023-01-29T08:37:13.245Z,32.95
2023-01-29T08:39:39.804Z,44.40
2023-01-29T08:42:06.403Z,41.63
2023-01-29T08:44:33.344Z,37.80
2023-01-29T08:47:00.256Z,37.00
2023-01-29T08:49:26.931Z,36.03
2023-01-29T08:51:57.029Z,34.97
2023-01-29T08:54:26.450Z,34.17
2023-01-29T08:56:53.026Z,39.67
2023-01-29T08:59:19.762Z,41.30
2023-01-29T09:01:46.307Z,38.88
2023-01-29T09:04:12.873Z,41.78
2023-01-29T09:06:39.765Z,34.93
2023-01-29T09:09:06.421Z,35.97
2023-01-29T09:11:33.227Z,42.47
2023-01-29T09:14:00.352Z,40.78
2023-01-29T09:16:27.218Z,43.17
2023-01-29T09:18:55.026Z,40.03
2023-01-29T09:21:22.065Z,38.97
2023-01-29T09:23:48.635Z,38.70
2023-01-29T09:26:15.418Z,37.28
2023-01-29T09:28:42.230Z,30.65
2023-01-29T09:31:09.003Z,36.27
2023-01-29T09:33:36.183Z,46.97
2023-01-29T09:36:04.183Z,41.30
2023-01-29T09:38:30.971Z,47.70
2023-01-29T09:41:08.894Z,47.95
2023-01-29T09:43:52.076Z,40.73
2023-01-29T09:46:40.662Z,47.67
2023-01-29T09:49:28.523Z,34.13
2023-01-29T09:52:19.970Z,47.17
2023-01-29T09:55:11.093Z,41.42
2023-01-29T09:57:50.029Z,38.97
2023-01-29T10:00:24.799Z,50.25
2023-01-29T10:02:57.353Z,37.70
2023-01-29T10:05:39.341Z,39.65
2023-01-29T10:08:24.947Z,36.05
2023-01-29T10:11:14.698Z,41.43
2023-01-29T10:13:55.295Z,40.22
2023-01-29T10:16:37.612Z,36.22
2023-01-29T10:19:26.526Z,36.33
2023-01-29T10:22:19.723Z,43.78
2023-01-29T10:25:06.300Z,49.33
2023-01-29T10:27:38.599Z,46.25
2023-01-29T10:30:30.521Z,61.22
2023-01-29T10:33:02.558Z,53.28
2023-01-29T10:35:38.602Z,39.85
2023-01-29T10:38:28.454Z,40.57
2023-01-29T10:41:18.062Z,50.95
2023-01-29T10:44:07.351Z,42.55
2023-01-29T10:47:02.788Z,39.05
2023-01-29T10:49:41.570Z,41.38
2023-01-29T10:52:29.592Z,46.07
2023-01-29T10:55:15.316Z,40.58
2023-01-29T10:58:23.948Z,46.05
2023-01-29T11:00:51.538Z,40.15
2023-01-29T11:03:28.108Z,45.80
2023-01-29T11:05:55.323Z,43.63
2023-01-29T11:08:28.447Z,40.28
2023-01-29T11:11:09.635Z,43.85
2023-01-29T11:13:42.637Z,46.47
2023-01-29T11:16:10.127Z,44.80
2023-01-29T11:19:09.328Z,44.80
2023-01-29T11:21:50.825Z,41.72
2023-01-29T11:24:17.614Z,43.85
2023-01-29T11:26:47.144Z,42.13
2023-01-29T11:29:35.074Z,56.17
2023-01-29T11:32:06.214Z,42.17
2023-01-29T11:34:32.961Z,45.22
2023-01-29T11:37:05.201Z,41.25
2023-01-29T11:39:32.926Z,50.10
2023-01-29T11:42:08.379Z,39.83
2023-01-29T11:44:43.287Z,35.50
2023-01-29T11:47:18.445Z,51.65
2023-01-29T11:49:48.280Z,43.15
2023-01-29T11:52:19.206Z,47.33
2023-01-29T11:55:14.018Z,50.38
2023-01-29T11:57:48.619Z,35.87
2023-01-29T12:00:27.980Z,37.95
2023-01-29T12:02:56.730Z,39.03
2023-01-29T12:05:25.186Z,47.47
2023-01-29T12:07:54.397Z,45.88
2023-01-29T12:10:32.224Z,33.23
2023-01-29T12:13:11.034Z,37.67
2023-01-29T12:15:42.573Z,41.15
2023-01-29T12:18:18.453Z,41.80
2023-01-29T12:21:12.143Z,41.92
2023-01-29T12:24:01.559Z,44.87
2023-01-29T12:26:39.513Z,46.72
2023-01-29T12:29:09.361Z,82.97
2023-01-29T12:32:17.751Z,41.40
2023-01-29T12:35:10.864Z,59.80
2023-01-29T12:37:43.514Z,47.60
2023-01-29T12:40:18.940Z,40.53
2023-01-29T12:42:53.930Z,39.67
2023-01-29T12:45:24.242Z,33.20
2023-01-29T12:47:59.479Z,38.08
2023-01-29T12:50:35.213Z,73.63
2023-01-29T12:53:15.922Z,40.53
2023-01-29T12:55:59.453Z,33.13
2023-01-29T12:58:47.295Z,47.53
2023-01-29T13:01:50.963Z,69.03
2023-01-29T13:04:37.147Z,56.40
2023-01-29T13:07:23.898Z,40.63
2023-01-29T13:10:01.905Z,32.83
2023-01-29T13:12:29.220Z,32.17
2023-01-29T13:15:03.980Z,47.45
2023-01-29T13:17:40.341Z,46.97
2023-01-29T13:20:30.334Z,34.35
2023-01-29T13:23:05.018Z,39.75
2023-01-29T13:25:33.112Z,65.00
2023-01-29T13:28:00.546Z,48.50
2023-01-29T13:30:33.429Z,37.37
2023-01-29T13:33:10.487Z,47.45
2023-01-29T13:35:41.573Z,35.90
2023-01-29T13:38:24.797Z,62.95
2023-01-29T13:41:00.839Z,42.78
2023-01-29T13:43:29.160Z,47.10
2023-01-29T13:45:55.917Z,50.67
2023-01-29T13:48:37.057Z,64.53
2023-01-29T13:51:15.918Z,41.22
2023-01-29T13:53:43.492Z,44.22
2023-01-29T13:56:33.238Z,38.40
2023-01-29T13:59:05.898Z,49.53
2023-01-29T14:13:11.905Z,34.70
2023-01-29T14:15:41.965Z,52.72
2023-01-29T14:18:08.526Z,59.97
2023-01-29T14:20:51.203Z,41.97
2023-01-29T14:23:31.221Z,52.20
2023-01-29T14:26:02.679Z,58.10
2023-01-29T14:28:32.202Z,53.25
2023-01-29T14:30:59.523Z,42.22
2023-01-29T14:33:28.972Z,60.00
2023-01-29T14:35:58.147Z,34.03
2023-01-29T14:38:27.900Z,45.33
2023-01-29T14:41:05.902Z,55.90
2023-01-29T14:43:32.820Z,51.83
2023-01-29T14:46:34.392Z,93.22
2023-01-29T14:49:01.748Z,36.78
2023-01-29T14:51:36.656Z,37.23
2023-01-29T14:54:17.199Z,37.63
2023-01-29T14:56:57.432Z,43.03
2023-01-29T14:59:50.185Z,32.35
2023-01-29T15:02:33.178Z,34.20
2023-01-29T15:05:02.416Z,47.27
2023-01-29T15:07:39.828Z,43.22
2023-01-29T15:10:42.650Z,72.97
2023-01-29T15:13:31.288Z,48.53
2023-01-29T15:16:09.487Z,41.20
2023-01-29T15:18:43.580Z,58.03
2023-01-29T15:21:15.426Z,56.65
2023-01-29T15:23:43.424Z,48.47
2023-01-29T15:26:19.279Z,47.97
2023-01-29T15:28:54.855Z,55.03
2023-01-29T15:31:26.000Z,63.37
2023-01-29T15:33:56.120Z,48.40
2023-01-29T15:36:28.470Z,85.07
2023-01-29T15:39:13.387Z,50.33
2023-01-29T15:41:40.343Z,41.05
2023-01-29T15:44:16.652Z,51.47
2023-01-29T15:46:48.455Z,54.95
2023-01-29T15:49:29.320Z,43.90
2023-01-29T15:51:58.776Z,39.20
2023-01-29T15:54:29.794Z,54.50
2023-01-29T15:56:57.691Z,38.47
2023-01-29T15:59:27.570Z,54.50
2023-01-29T16:01:54.464Z,35.17
2023-01-29T16:04:28.941Z,57.75
2023-01-29T16:06:57.905Z,48.15
2023-01-29T16:09:27.265Z,69.10
2023-01-29T16:11:57.757Z,41.78
2023-01-29T16:14:25.789Z,49.65
2023-01-29T16:16:53.039Z,55.58
2023-01-29T16:19:28.439Z,42.97
2023-01-29T16:22:06.207Z,51.77
2023-01-29T16:24:36.294Z,56.97
2023-01-29T16:27:13.148Z,63.95
2023-01-29T16:29:39.875Z,45.47
2023-01-29T16:32:07.063Z,66.65
2023-01-29T16:34:40.207Z,70.97
2023-01-29T16:37:18.489Z,41.20
2023-01-29T16:39:48.222Z,76.75
2023-01-29T16:42:19.933Z,46.85
2023-01-29T16:44:50.014Z,63.90
2023-01-29T16:47:37.451Z,52.90
2023-01-29T16:50:36.107Z,43.20
2023-01-29T16:53:18.583Z,48.67
2023-01-29T16:55:49.542Z,35.10
2023-01-29T16:58:22.768Z,55.63
2023-01-29T17:00:53.869Z,77.87
2023-01-29T17:03:21.393Z,48.17
2023-01-29T17:05:48.539Z,51.65
2023-01-29T17:08:25.608Z,59.42
2023-01-29T17:10:52.848Z,60.60
2023-01-29T17:13:38.770Z,45.90
2023-01-29T17:16:33.110Z,50.40
2023-01-29T17:19:00.604Z,53.03
2023-01-29T17:21:29.302Z,47.58
2023-01-29T17:23:56.031Z,54.33
2023-01-29T17:26:24.755Z,51.57
2023-01-29T17:28:53.613Z,44.78
2023-01-29T17:31:20.451Z,48.10
2023-01-29T17:33:47.506Z,51.33
2023-01-29T17:36:16.923Z,58.53
2023-01-29T17:38:43.720Z,48.23
2023-01-29T17:41:24.575Z,40.20
2023-01-29T17:43:51.365Z,45.78
2023-01-29T17:46:18.563Z,66.32
2023-01-29T17:48:45.854Z,51.85
2023-01-29T17:51:17.600Z,45.33
2023-01-29T17:53:46.677Z,57.25
2023-01-29T17:56:19.708Z,54.03
2023-01-29T17:58:46.625Z,48.83
2023-01-29T18:01:13.185Z,45.47
2023-01-29T18:03:40.267Z,51.80
2023-01-29T18:06:09.111Z,47.08
2023-01-29T18:08:38.239Z,66.38
2023-01-29T18:11:05.609Z,52.70
2023-01-29T18:13:32.256Z,47.50
2023-01-29T18:15:59.001Z,64.77
2023-01-29T18:18:25.689Z,59.10
2023-01-29T18:20:52.288Z,69.75
2023-01-29T18:23:19.214Z,51.00
2023-01-29T18:25:46.065Z,51.78
2023-01-29T18:28:19.801Z,46.27
2023-01-29T18:30:47.493Z,46.33
2023-01-29T18:33:15.331Z,54.78
2023-01-29T18:35:44.295Z,47.13
2023-01-29T18:38:11.169Z,78.05
2023-01-29T18:40:37.695Z,51.63
2023-01-29T18:43:04.372Z,63.95
2023-01-29T18:45:31.426Z,83.32
2023-01-29T18:47:58.167Z,78.45
2023-01-29T18:50:26.454Z,55.70
2023-01-29T18:52:54.437Z,96.93
2023-01-29T18:55:22.236Z,78.20
2023-01-29T18:58:29.304Z,51.78
2023-01-29T19:00:42.121Z,43.72
2023-01-29T19:03:08.810Z,45.30
2023-01-29T19:05:35.421Z,49.80
2023-01-29T19:08:02.040Z,64.70
2023-01-29T19:10:28.853Z,50.90
2023-01-29T19:12:55.440Z,60.58
2023-01-29T19:15:22.689Z,50.28
2023-01-29T19:17:50.589Z,59.43
2023-01-29T19:20:17.811Z,67.68
2023-01-29T19:22:44.469Z,84.60
2023-01-29T19:25:11.473Z,72.40
2023-01-29T19:27:38.139Z,58.60
2023-01-29T19:30:05.819Z,85.93
2023-01-29T19:32:32.646Z,68.90
2023-01-29T19:34:59.403Z,84.35
2023-01-29T19:37:26.154Z,74.53
2023-01-29T19:39:53.843Z,82.85
2023-01-29T19:42:20.938Z,49.70
2023-01-29T19:44:47.796Z,73.30
2023-01-29T19:47:14.436Z,87.55
2023-01-29T19:49:41.054Z,116.40
2023-01-29T19:52:14.922Z,66.55
2023-01-29T19:54:46.232Z,67.67
2023-01-29T19:57:12.872Z,62.50
2023-01-29T19:59:39.438Z,66.03
2023-01-29T20:02:06.636Z,55.25
2023-01-29T20:04:33.338Z,84.35
2023-01-29T20:07:00.040Z,62.77
2023-01-29T20:09:29.336Z,64.00
2023-01-29T20:11:55.995Z,92.05
2023-01-29T20:14:22.725Z,61.15
2023-01-29T20:16:49.322Z,75.15
2023-01-29T20:19:16.139Z,78.70
2023-01-29T20:21:45.665Z,64.82
2023-01-29T20:24:13.061Z,71.38
2023-01-29T20:26:39.694Z,56.03
2023-01-29T20:29:06.594Z,78.63
2023-01-29T20:31:33.901Z,47.87
2023-01-29T20:34:00.717Z,48.55
2023-01-29T20:36:27.369Z,40.92
2023-01-29T20:38:54.094Z,52.80
2023-01-29T20:41:21.329Z,50.83
2023-01-29T20:43:50.197Z,47.67
2023-01-29T20:46:16.972Z,55.05
2023-01-29T20:48:43.603Z,83.75
2023-01-29T20:51:16.688Z,75.35
2023-01-29T20:53:45.755Z,75.68
2023-01-29T20:56:14.146Z,55.80
2023-01-29T20:58:43.709Z,60.45
2023-01-29T21:01:16.212Z,53.65
2023-01-29T21:03:42.985Z,50.80
2023-01-29T21:06:11.132Z,67.88
2023-01-29T21:08:39.108Z,94.93
2023-01-29T21:11:08.113Z,64.95
2023-01-29T21:13:35.059Z,77.78
2023-01-29T21:16:02.314Z,62.05
2023-01-29T21:18:28.995Z,56.33
2023-01-29T21:20:56.280Z,64.13
2023-01-29T21:23:22.856Z,97.88
2023-01-29T21:25:49.582Z,78.15
2023-01-29T21:28:16.538Z,102.50
2023-01-29T21:30:43.204Z,53.13
2023-01-29T21:33:09.902Z,55.17
2023-01-29T21:35:37.877Z,62.38
2023-01-29T21:38:04.739Z,64.07
2023-01-29T21:40:31.894Z,56.78
2023-01-29T21:43:13.563Z,53.08
2023-01-29T21:45:40.677Z,46.40
2023-01-29T21:48:07.966Z,54.65
2023-01-29T21:50:34.774Z,49.97
2023-01-29T21:53:01.833Z,64.60
2023-01-29T21:55:28.572Z,68.07
2023-01-29T21:57:55.291Z,49.50
2023-01-29T22:00:22.352Z,55.53
2023-01-29T22:02:50.294Z,76.82
2023-01-29T22:05:20.161Z,78.32
2023-01-29T22:07:48.517Z,80.45
2023-01-29T22:10:19.899Z,57.27
2023-01-29T22:12:47.974Z,109.38
2023-01-29T22:15:15.512Z,69.28
2023-01-29T22:17:42.282Z,62.60
2023-01-29T22:20:10.736Z,59.80
2023-01-29T22:22:37.499Z,79.73
2023-01-29T22:25:04.942Z,67.97
2023-01-29T22:27:33.316Z,65.60
2023-01-29T22:30:00.211Z,55.03
2023-01-29T22:32:27.005Z,75.10
2023-01-29T22:34:53.750Z,63.47
2023-01-29T22:37:20.443Z,54.42
2023-01-29T22:39:47.068Z,74.57
2023-01-29T22:42:13.639Z,71.78
2023-01-29T22:44:40.453Z,86.18
2023-01-29T22:47:07.282Z,117.20
2023-01-29T22:49:33.965Z,56.85
2023-01-29T22:52:12.659Z,56.25
2023-01-29T22:54:43.660Z,74.22
2023-01-29T22:57:12.225Z,111.95
2023-01-29T22:59:39.362Z,64.67
2023-01-29T23:02:07.746Z,64.10
2023-01-29T23:04:34.567Z,68.90
2023-01-29T23:07:01.370Z,69.07
2023-01-29T23:09:28.044Z,59.13
2023-01-29T23:11:54.691Z,83.97
2023-01-29T23:14:21.608Z,80.90
2023-01-29T23:16:48.255Z,70.38
2023-01-29T23:19:14.880Z,50.45
2023-01-29T23:21:41.580Z,58.65
2023-01-29T23:24:09.186Z,58.57
2023-01-29T23:26:54.694Z,72.60
2023-01-29T23:29:21.592Z,83.63
2023-01-29T23:31:51.044Z,67.85
2023-01-29T23:34:17.671Z,54.47
2023-01-29T23:36:44.396Z,40.27
2023-01-29T23:39:11.671Z,49.35
2023-01-29T23:41:38.364Z,85.18
2023-01-29T23:44:05.076Z,77.30
2023-01-29T23:46:32.192Z,56.40
2023-01-29T23:48:59.158Z,91.57
2023-01-29T23:51:25.971Z,70.53
2023-01-29T23:53:53.060Z,73.28
2023-01-29T23:56:19.784Z,47.53
2023-01-29T23:58:46.804Z,71.78
